createdAt,value
2022-07-28T00:00:00.696Z,15.30
2022-07-28T00:02:28.834Z,15.15
2022-07-28T00:04:56.918Z,15.04
2022-07-28T00:07:25.015Z,14.96
2022-07-28T00:09:56.919Z,14.89
2022-07-28T00:12:28.493Z,14.82
2022-07-28T00:14:56.830Z,14.77
2022-07-28T00:17:25.483Z,14.71
2022-07-28T00:19:53.461Z,14.86
2022-07-28T00:22:21.650Z,16.01
2022-07-28T00:24:49.677Z,16.97
2022-07-28T00:27:19.364Z,17.67
2022-07-28T00:29:51.079Z,17.32
2022-07-28T00:32:20.652Z,16.75
2022-07-28T00:34:49.066Z,16.32
2022-07-28T00:37:21.591Z,15.99
2022-07-28T00:39:49.693Z,15.74
2022-07-28T00:42:19.100Z,15.52
2022-07-28T00:44:47.866Z,15.34
2022-07-28T00:47:15.830Z,15.18
2022-07-28T00:49:45.501Z,15.01
2022-07-28T00:52:13.614Z,14.87
2022-07-28T00:54:42.317Z,14.76
2022-07-28T00:57:10.389Z,14.67
2022-07-28T00:59:38.361Z,14.59
2022-07-28T01:02:06.884Z,14.50
2022-07-28T01:04:35.158Z,14.40
2022-07-28T01:07:17.312Z,14.32
2022-07-28T01:10:08.367Z,14.53
2022-07-28T01:12:40.303Z,15.88
2022-07-28T01:15:20.787Z,16.85
2022-07-28T01:17:53.281Z,16.52
2022-07-28T01:20:21.154Z,15.97
2022-07-28T01:23:06.510Z,15.57
2022-07-28T01:25:48.811Z,15.26
2022-07-28T01:28:32.661Z,15.03
2022-07-28T01:31:04.150Z,14.77
2022-07-28T01:33:36.136Z,14.59
2022-07-28T01:36:10.782Z,14.43
2022-07-28T01:38:39.639Z,14.29
2022-07-28T01:41:15.300Z,14.18
2022-07-28T01:43:47.399Z,14.08
2022-07-28T01:46:16.642Z,13.99
2022-07-28T01:48:45.510Z,13.91
2022-07-28T01:51:14.259Z,13.84
2022-07-28T01:53:43.201Z,14.00
2022-07-28T01:56:11.962Z,15.32
2022-07-28T01:58:39.980Z,16.71
2022-07-28T02:01:09.941Z,17.34
2022-07-28T02:03:39.501Z,16.76
2022-07-28T02:06:07.864Z,16.02
2022-07-28T02:08:37.190Z,15.48
2022-07-28T02:11:23.611Z,15.08
2022-07-28T02:13:52.344Z,14.76
2022-07-28T02:16:22.862Z,14.52
2022-07-28T02:18:52.927Z,14.30
2022-07-28T02:21:22.560Z,14.09
2022-07-28T02:23:50.786Z,13.92
2022-07-28T02:26:29.001Z,13.78
2022-07-28T02:28:58.883Z,13.62
2022-07-28T02:35:57.477Z,13.30
2022-07-28T02:38:31.418Z,13.21
2022-07-28T02:41:10.992Z,13.16
2022-07-28T02:43:49.609Z,13.38
2022-07-28T02:46:26.570Z,14.73
2022-07-28T02:49:04.886Z,15.90
2022-07-28T02:51:34.484Z,16.49
2022-07-28T02:54:03.528Z,15.99
2022-07-28T02:56:33.529Z,15.40
2022-07-28T02:59:02.953Z,14.99
2022-07-28T03:01:31.684Z,14.68
2022-07-28T03:04:00.182Z,14.44
2022-07-28T03:06:28.750Z,14.22
2022-07-28T03:08:57.586Z,14.04
2022-07-28T03:11:26.923Z,13.88
2022-07-28T03:13:55.043Z,13.75
2022-07-28T03:16:23.168Z,13.62
2022-07-28T03:18:51.758Z,13.48
2022-07-28T03:21:19.720Z,13.34
2022-07-28T03:23:48.585Z,13.21
2022-07-28T03:26:28.055Z,13.10
2022-07-28T03:28:57.815Z,13.01
2022-07-28T03:31:25.990Z,12.94
2022-07-28T03:33:54.100Z,12.90
2022-07-28T03:36:26.822Z,12.86
2022-07-28T03:39:05.085Z,13.09
2022-07-28T03:41:33.953Z,14.60
2022-07-28T03:44:02.972Z,15.66
2022-07-28T03:46:31.584Z,15.42
2022-07-28T03:48:59.952Z,14.89
2022-07-28T03:51:29.625Z,14.49
2022-07-28T03:53:57.530Z,14.21
2022-07-28T03:56:25.594Z,14.03
2022-07-28T03:58:53.511Z,13.88
2022-07-28T04:01:22.271Z,13.76
2022-07-28T04:03:50.226Z,13.67
2022-07-28T04:06:18.538Z,13.61
2022-07-28T04:08:46.610Z,13.54
2022-07-28T04:11:14.572Z,13.48
2022-07-28T04:13:42.531Z,13.42
2022-07-28T04:16:10.624Z,13.37
2022-07-28T04:18:39.473Z,13.35
2022-07-28T04:21:07.757Z,13.35
2022-07-28T04:23:35.912Z,13.63
2022-07-28T04:26:04.020Z,15.11
2022-07-28T04:28:32.025Z,16.54
2022-07-28T04:31:00.306Z,17.26
2022-07-28T04:33:30.487Z,16.84
2022-07-28T04:35:58.474Z,16.28
2022-07-28T04:38:26.422Z,15.93
2022-07-28T04:40:54.612Z,15.70
2022-07-28T04:43:22.971Z,15.50
2022-07-28T04:45:53.335Z,15.35
2022-07-28T04:48:23.090Z,15.22
2022-07-28T04:50:53.026Z,15.15
2022-07-28T04:53:23.040Z,15.10
2022-07-28T04:55:52.622Z,15.08
2022-07-28T04:58:23.739Z,15.07
2022-07-28T05:00:52.732Z,15.08
2022-07-28T05:03:21.007Z,15.10
2022-07-28T05:05:53.855Z,15.14
2022-07-28T05:08:26.237Z,15.19
2022-07-28T05:10:55.848Z,15.25
2022-07-28T05:13:25.995Z,15.31
2022-07-28T05:15:55.808Z,15.38
2022-07-28T05:18:23.796Z,15.46
2022-07-28T05:20:51.760Z,15.56
2022-07-28T05:23:20.219Z,15.67
2022-07-28T05:25:48.226Z,15.78
2022-07-28T05:28:17.070Z,15.90
2022-07-28T05:30:45.402Z,16.03
2022-07-28T05:33:15.628Z,16.14
2022-07-28T05:35:44.833Z,16.24
2022-07-28T05:38:13.399Z,16.35
2022-07-28T05:40:41.478Z,16.47
2022-07-28T05:43:09.618Z,16.59
2022-07-28T05:45:37.705Z,16.72
2022-07-28T05:48:06.103Z,16.85
2022-07-28T05:50:34.269Z,16.98
2022-07-28T05:53:02.267Z,17.11
2022-07-28T05:55:30.385Z,17.20
2022-07-28T05:58:00.494Z,17.26
2022-07-28T06:00:28.452Z,17.35
2022-07-28T06:03:01.859Z,17.43
2022-07-28T06:05:31.524Z,17.55
2022-07-28T06:08:00.158Z,17.67
2022-07-28T06:10:48.822Z,17.79
2022-07-28T06:13:16.889Z,17.94
2022-07-28T06:15:47.335Z,18.08
2022-07-28T06:18:16.550Z,18.19
2022-07-28T06:20:45.299Z,18.30
2022-07-28T06:23:13.354Z,18.44
2022-07-28T06:25:41.441Z,18.58
2022-07-28T06:28:09.405Z,18.73
2022-07-28T06:30:37.326Z,18.85
2022-07-28T06:33:05.943Z,18.97
2022-07-28T06:35:45.895Z,19.09
2022-07-28T06:38:20.632Z,19.26
2022-07-28T06:40:49.514Z,19.40
2022-07-28T06:43:17.602Z,19.54
2022-07-28T06:45:45.861Z,19.69
2022-07-28T06:48:13.929Z,19.84
2022-07-28T06:50:42.563Z,19.98
2022-07-28T06:53:10.501Z,20.09
2022-07-28T06:55:38.973Z,20.20
2022-07-28T06:58:09.384Z,20.33
2022-07-28T07:00:37.502Z,20.44
2022-07-28T07:03:09.644Z,20.58
2022-07-28T07:05:37.982Z,20.75
2022-07-28T07:08:06.570Z,20.91
2022-07-28T07:10:36.235Z,21.04
2022-07-28T07:13:04.907Z,21.19
2022-07-28T07:15:35.060Z,21.31
2022-07-28T07:18:03.611Z,21.45
2022-07-28T07:20:31.668Z,21.58
2022-07-28T07:22:59.586Z,21.67
2022-07-28T07:25:27.743Z,21.72
2022-07-28T07:27:55.888Z,21.78
2022-07-28T07:30:23.911Z,21.90
2022-07-28T07:32:51.894Z,22.03
2022-07-28T07:35:19.953Z,22.16
2022-07-28T07:37:47.890Z,22.32
2022-07-28T07:40:15.888Z,22.48
2022-07-28T07:42:43.851Z,22.63
2022-07-28T07:45:12.467Z,22.74
2022-07-28T07:47:40.935Z,22.84
2022-07-28T07:50:09.161Z,22.93
2022-07-28T07:52:37.328Z,22.98
2022-07-28T07:55:06.009Z,23.00
2022-07-28T07:57:34.026Z,23.03
2022-07-28T08:00:02.144Z,23.14
2022-07-28T08:02:32.375Z,23.27
2022-07-28T08:05:01.117Z,23.44
2022-07-28T08:07:29.341Z,23.61
2022-07-28T08:09:57.376Z,23.79
2022-07-28T08:12:25.684Z,23.95
2022-07-28T08:14:54.271Z,24.11
2022-07-28T08:17:26.010Z,24.23
2022-07-28T08:19:55.134Z,24.30
2022-07-28T08:22:23.776Z,24.37
2022-07-28T08:24:51.922Z,24.44
2022-07-28T08:27:20.069Z,24.54
2022-07-28T08:29:48.019Z,24.66
2022-07-28T08:32:16.023Z,24.75
2022-07-28T08:34:44.155Z,24.89
2022-07-28T08:37:12.113Z,25.08
2022-07-28T08:39:40.072Z,25.24
2022-07-28T08:42:18.789Z,25.37
2022-07-28T08:45:01.363Z,25.53
2022-07-28T08:47:46.033Z,25.64
2022-07-28T08:50:24.969Z,25.67
2022-07-28T08:52:54.027Z,25.70
2022-07-28T08:55:31.288Z,25.74
2022-07-28T08:58:00.726Z,25.73
2022-07-28T09:00:29.203Z,25.73
2022-07-28T09:02:58.121Z,25.76
2022-07-28T09:05:26.818Z,25.77
2022-07-28T09:07:55.640Z,25.79
2022-07-28T09:10:23.978Z,25.87
2022-07-28T09:12:52.043Z,25.96
2022-07-28T09:15:20.033Z,25.95
2022-07-28T09:17:53.208Z,25.99
2022-07-28T09:20:21.366Z,26.02
2022-07-28T09:23:03.849Z,25.95
2022-07-28T09:25:31.928Z,25.98
2022-07-28T09:28:18.012Z,26.06
2022-07-28T09:30:52.522Z,26.20
2022-07-28T09:33:41.956Z,26.34
2022-07-28T09:36:16.474Z,26.42
2022-07-28T09:38:45.017Z,26.52
2022-07-28T09:41:13.476Z,26.67
2022-07-28T09:43:44.042Z,26.80
2022-07-28T09:46:14.191Z,26.85
2022-07-28T09:48:54.062Z,26.81
2022-07-28T09:51:31.141Z,26.80
2022-07-28T09:54:17.828Z,26.83
2022-07-28T09:56:46.221Z,26.82
2022-07-28T09:59:14.948Z,26.81
2022-07-28T10:01:51.436Z,26.78
2022-07-28T10:04:33.669Z,26.82
2022-07-28T10:07:17.226Z,26.93
2022-07-28T10:10:05.574Z,27.14
2022-07-28T10:12:35.725Z,27.38
2022-07-28T10:15:32.895Z,27.61
2022-07-28T10:22:37.197Z,28.17
2022-07-28T10:25:15.117Z,28.34
2022-07-28T10:27:45.262Z,28.53
2022-07-28T10:30:13.734Z,28.67
2022-07-28T10:32:46.104Z,28.80
2022-07-28T10:35:16.054Z,28.90
2022-07-28T10:38:10.803Z,29.07
2022-07-28T10:40:42.704Z,29.21
2022-07-28T10:43:11.138Z,29.26
2022-07-28T10:46:04.401Z,29.27
2022-07-28T10:48:28.461Z,29.26
2022-07-28T10:50:57.234Z,29.30
2022-07-28T10:53:43.982Z,29.37
2022-07-28T10:56:19.904Z,29.46
2022-07-28T10:58:54.424Z,29.50
2022-07-28T11:01:51.310Z,29.55
2022-07-28T11:04:41.138Z,29.59
2022-07-28T11:07:10.938Z,29.64
2022-07-28T11:09:38.929Z,29.60
2022-07-28T11:12:09.625Z,29.62
2022-07-28T11:14:39.375Z,29.72
2022-07-28T11:17:10.087Z,29.85
2022-07-28T11:20:16.934Z,29.99
2022-07-28T11:22:34.351Z,30.13
2022-07-28T11:25:18.837Z,30.16
2022-07-28T11:27:51.739Z,30.25
2022-07-28T11:30:26.156Z,30.32
2022-07-28T11:32:54.180Z,30.36
2022-07-28T11:35:33.331Z,30.36
2022-07-28T11:38:01.414Z,30.36
2022-07-28T11:40:39.253Z,30.40
2022-07-28T11:43:35.639Z,30.51
2022-07-28T11:46:10.195Z,30.63
2022-07-28T11:48:44.841Z,30.69
2022-07-28T11:51:14.046Z,30.75
2022-07-28T11:53:44.240Z,30.87
2022-07-28T11:56:22.347Z,31.01
2022-07-28T11:59:04.976Z,31.17
2022-07-28T12:01:36.871Z,31.27
2022-07-28T12:04:12.301Z,31.30
2022-07-28T12:06:42.987Z,31.30
2022-07-28T12:09:13.447Z,31.35
2022-07-28T12:11:42.136Z,31.43
2022-07-28T12:14:15.511Z,31.49
2022-07-28T12:16:45.240Z,31.60
2022-07-28T12:19:17.847Z,31.72
2022-07-28T12:21:49.574Z,31.77
2022-07-28T12:24:32.313Z,31.77
2022-07-28T12:27:16.461Z,31.69
2022-07-28T12:29:56.221Z,31.65
2022-07-28T12:32:31.452Z,31.62
2022-07-28T12:34:59.475Z,31.66
2022-07-28T12:37:28.091Z,31.73
2022-07-28T12:39:56.098Z,31.79
2022-07-28T12:42:25.119Z,31.80
2022-07-28T12:45:07.488Z,31.71
2022-07-28T12:47:35.502Z,31.62
2022-07-28T12:50:19.964Z,31.55
2022-07-28T12:53:08.723Z,31.58
2022-07-28T12:55:38.725Z,31.68
2022-07-28T12:58:07.104Z,31.79
2022-07-28T13:00:36.215Z,31.89
2022-07-28T13:03:50.607Z,32.01
2022-07-28T13:06:21.577Z,32.13
2022-07-28T13:08:49.559Z,32.13
2022-07-28T13:11:42.677Z,32.15
2022-07-28T13:14:05.918Z,32.25
2022-07-28T13:16:34.423Z,32.32
2022-07-28T13:19:05.731Z,32.45
2022-07-28T13:21:57.233Z,32.61
2022-07-28T13:24:28.297Z,32.80
2022-07-28T13:26:57.138Z,32.93
2022-07-28T13:29:26.003Z,32.87
2022-07-28T13:31:56.858Z,32.76
2022-07-28T13:34:24.815Z,32.82
2022-07-28T13:36:52.853Z,32.97
2022-07-28T13:39:20.766Z,33.18
2022-07-28T13:41:58.252Z,33.33
2022-07-28T13:44:28.034Z,33.50
2022-07-28T13:46:56.566Z,33.74
2022-07-28T13:49:25.089Z,33.88
2022-07-28T13:51:53.818Z,34.01
2022-07-28T13:54:22.310Z,34.14
2022-07-28T13:56:50.238Z,34.09
2022-07-28T13:59:18.195Z,34.05
2022-07-28T14:01:49.675Z,34.10
2022-07-28T14:04:21.783Z,34.20
2022-07-28T14:06:50.118Z,34.39
2022-07-28T14:09:18.665Z,34.52
2022-07-28T14:11:49.917Z,34.65
2022-07-28T14:14:24.592Z,34.82
2022-07-28T14:16:55.759Z,34.99
2022-07-28T14:19:38.917Z,35.17
2022-07-28T14:22:13.235Z,35.43
2022-07-28T14:24:42.739Z,35.63
2022-07-28T14:27:13.499Z,35.81
2022-07-28T14:29:42.661Z,35.83
2022-07-28T14:32:10.633Z,35.90
2022-07-28T14:34:39.774Z,36.10
2022-07-28T14:37:09.250Z,36.33
2022-07-28T14:39:38.316Z,36.66
2022-07-28T14:42:06.969Z,37.00
2022-07-28T14:44:34.999Z,37.22
2022-07-28T14:47:03.453Z,37.37
2022-07-28T14:49:31.758Z,37.60
2022-07-28T14:51:59.687Z,37.90
2022-07-28T14:54:28.326Z,38.30
2022-07-28T14:56:56.396Z,38.67
2022-07-28T14:59:24.565Z,39.03
2022-07-28T15:01:52.674Z,39.41
2022-07-28T15:04:20.746Z,39.82
2022-07-28T15:06:48.860Z,40.22
2022-07-28T15:09:16.819Z,40.45
2022-07-28T15:11:47.361Z,40.67
2022-07-28T15:14:16.421Z,40.97
2022-07-28T15:16:48.974Z,41.29
2022-07-28T15:19:17.124Z,41.63
2022-07-28T15:21:47.299Z,41.81
2022-07-28T15:24:16.338Z,42.03
2022-07-28T15:26:44.672Z,42.22
2022-07-28T15:29:12.602Z,42.48
2022-07-28T15:31:42.732Z,42.84
2022-07-28T15:34:13.742Z,43.28
2022-07-28T15:36:41.914Z,43.73
2022-07-28T15:39:13.965Z,44.23
2022-07-28T15:41:45.473Z,44.75
2022-07-28T15:44:14.750Z,45.22
2022-07-28T15:46:43.699Z,45.49
2022-07-28T15:49:14.874Z,45.67
2022-07-28T15:51:42.923Z,45.85
2022-07-28T15:54:10.983Z,46.02
2022-07-28T15:56:39.890Z,46.14
2022-07-28T15:59:07.980Z,46.39
2022-07-28T16:01:36.294Z,46.69
2022-07-28T16:04:04.507Z,46.59
2022-07-28T16:06:51.476Z,46.35
2022-07-28T16:09:19.659Z,46.49
2022-07-28T16:11:47.660Z,46.65
2022-07-28T16:14:19.293Z,46.85
2022-07-28T16:16:47.971Z,47.20
2022-07-28T16:19:38.513Z,47.49
2022-07-28T16:22:04.051Z,47.89
2022-07-28T16:24:32.087Z,48.04
2022-07-28T16:27:03.186Z,48.20
2022-07-28T16:29:33.783Z,48.23
2022-07-28T16:32:05.602Z,48.32
2022-07-28T16:34:38.083Z,48.30
2022-07-28T16:37:06.418Z,48.21
2022-07-28T16:39:34.937Z,47.92
2022-07-28T16:42:03.401Z,47.54
2022-07-28T16:44:31.917Z,47.32
2022-07-28T16:46:59.874Z,47.23
2022-07-28T16:49:27.907Z,47.28
2022-07-28T16:51:56.287Z,47.13
2022-07-28T16:54:24.912Z,46.89
2022-07-28T16:56:55.530Z,46.55
2022-07-28T16:59:24.257Z,46.24
2022-07-28T17:02:05.138Z,46.03
2022-07-28T17:04:33.354Z,45.94
2022-07-28T17:07:02.698Z,46.26
2022-07-28T17:09:30.716Z,46.69
2022-07-28T17:11:58.816Z,47.21
2022-07-28T17:14:26.859Z,47.73
2022-07-28T17:16:54.821Z,48.14
2022-07-28T17:19:22.873Z,48.30
2022-07-28T17:21:57.829Z,48.61
2022-07-28T17:24:27.865Z,48.83
2022-07-28T17:29:51.647Z,49.02
2022-07-28T17:32:22.532Z,49.38
2022-07-28T17:34:50.543Z,49.64
2022-07-28T17:37:18.521Z,49.64
2022-07-28T17:39:46.416Z,49.66
2022-07-28T17:42:14.326Z,49.71
2022-07-28T17:44:42.321Z,49.00
2022-07-28T17:47:13.025Z,47.35
2022-07-28T17:49:45.353Z,45.42
2022-07-28T17:52:13.576Z,43.50
2022-07-28T17:54:59.908Z,41.83
2022-07-28T17:57:30.562Z,40.15
2022-07-28T18:00:06.603Z,38.79
2022-07-28T18:02:40.065Z,37.57
2022-07-28T18:05:10.167Z,36.51
2022-07-28T18:07:48.644Z,35.52
2022-07-28T18:10:24.627Z,34.56
2022-07-28T18:12:53.275Z,33.74
2022-07-28T18:15:21.879Z,33.01
2022-07-28T18:17:55.254Z,32.36
2022-07-28T18:20:24.229Z,31.74
2022-07-28T18:22:52.487Z,31.18
2022-07-28T18:25:20.508Z,30.65
2022-07-28T18:27:49.470Z,30.15
2022-07-28T18:30:18.710Z,29.69
2022-07-28T18:32:46.651Z,29.26
2022-07-28T18:35:14.695Z,28.90
2022-07-28T18:37:46.050Z,28.55
2022-07-28T18:40:14.636Z,28.21
2022-07-28T18:42:42.867Z,27.92
2022-07-28T18:45:11.671Z,27.64
2022-07-28T18:47:46.458Z,27.36
2022-07-28T18:50:27.822Z,27.08
2022-07-28T18:52:59.771Z,26.81
2022-07-28T18:55:27.867Z,26.56
2022-07-28T18:57:56.742Z,26.34
2022-07-28T19:00:24.827Z,26.13
2022-07-28T19:02:52.908Z,25.94
2022-07-28T19:05:21.274Z,25.76
2022-07-28T19:07:50.063Z,25.59
2022-07-28T19:10:18.070Z,25.42
2022-07-28T19:12:46.590Z,25.27
2022-07-28T19:15:15.665Z,25.13
2022-07-28T19:17:43.578Z,24.99
2022-07-28T19:20:11.861Z,24.85
2022-07-28T19:22:40.492Z,24.72
2022-07-28T19:25:09.427Z,24.60
2022-07-28T19:27:37.666Z,24.48
2022-07-28T19:30:07.795Z,24.37
2022-07-28T19:32:38.604Z,24.25
2022-07-28T19:35:07.616Z,24.14
2022-07-28T19:37:37.311Z,24.05
2022-07-28T19:40:10.101Z,23.96
2022-07-28T19:42:39.223Z,23.85
2022-07-28T19:45:08.231Z,23.75
2022-07-28T19:47:36.846Z,23.68
2022-07-28T19:50:06.101Z,23.59
2022-07-28T19:52:34.844Z,23.53
2022-07-28T19:55:08.400Z,23.44
2022-07-28T19:57:37.073Z,23.36
2022-07-28T20:00:07.564Z,23.28
2022-07-28T20:02:45.108Z,23.20
2022-07-28T20:05:13.361Z,23.13
2022-07-28T20:07:44.748Z,23.06
2022-07-28T20:10:14.161Z,23.00
2022-07-28T20:12:42.133Z,22.95
2022-07-28T20:15:10.299Z,22.89
2022-07-28T20:17:39.866Z,22.83
2022-07-28T20:20:09.833Z,22.77
2022-07-28T20:22:41.331Z,22.70
2022-07-28T20:25:11.033Z,22.63
2022-07-28T20:27:40.839Z,22.58
2022-07-28T20:30:10.247Z,22.53
2022-07-28T20:32:40.525Z,22.47
2022-07-28T20:35:11.683Z,22.42
2022-07-28T20:37:39.581Z,22.38
2022-07-28T20:40:09.757Z,22.33
2022-07-28T20:42:37.729Z,22.26
2022-07-28T20:45:09.157Z,22.18
2022-07-28T20:47:37.192Z,22.12
2022-07-28T20:50:06.013Z,22.08
2022-07-28T20:52:34.268Z,22.04
2022-07-28T20:55:02.537Z,21.99
2022-07-28T20:57:30.692Z,21.96
2022-07-28T20:59:58.619Z,21.91
2022-07-28T21:02:26.639Z,21.85
2022-07-28T21:04:55.462Z,21.78
2022-07-28T21:08:00.719Z,21.73
2022-07-28T21:10:12.879Z,21.65
2022-07-28T21:12:40.811Z,21.59
2022-07-28T21:15:09.698Z,21.54
2022-07-28T21:17:37.742Z,21.50
2022-07-28T21:20:07.398Z,21.45
2022-07-28T21:22:35.329Z,21.42
2022-07-28T21:25:03.510Z,21.40
2022-07-28T21:27:51.335Z,21.35
2022-07-28T21:30:20.616Z,21.31
2022-07-28T21:32:56.140Z,21.28
2022-07-28T21:35:25.043Z,21.24
2022-07-28T21:37:52.952Z,21.21
2022-07-28T21:40:20.956Z,21.18
2022-07-28T21:42:48.827Z,21.15
2022-07-28T21:45:16.939Z,21.12
2022-07-28T21:47:44.854Z,21.08
2022-07-28T21:50:12.863Z,21.05
2022-07-28T21:52:40.750Z,21.01
2022-07-28T21:55:09.471Z,20.97
2022-07-28T21:57:37.391Z,20.93
2022-07-28T22:00:10.342Z,20.90
2022-07-28T22:02:38.355Z,20.86
2022-07-28T22:05:09.272Z,20.83
2022-07-28T22:07:37.277Z,20.79
2022-07-28T22:10:05.792Z,20.74
2022-07-28T22:12:33.711Z,20.69
2022-07-28T22:15:01.651Z,20.66
2022-07-28T22:17:30.253Z,20.63
2022-07-28T22:19:58.332Z,20.60
2022-07-28T22:22:26.810Z,20.58
2022-07-28T22:24:54.688Z,20.54
2022-07-28T22:27:22.752Z,20.50
2022-07-28T22:29:51.955Z,20.46
2022-07-28T22:32:28.574Z,20.43
2022-07-28T22:34:58.184Z,20.39
2022-07-28T22:37:26.312Z,20.35
2022-07-28T22:39:54.700Z,20.33
2022-07-28T22:42:22.646Z,20.28
2022-07-28T22:44:50.714Z,20.23
2022-07-28T22:47:18.842Z,20.19
2022-07-28T22:49:47.039Z,20.15
2022-07-28T22:52:14.916Z,20.11
2022-07-28T22:54:43.331Z,20.08
2022-07-28T22:57:11.195Z,20.04
2022-07-28T22:59:40.225Z,20.01
2022-07-28T23:02:10.942Z,19.96
2022-07-28T23:04:40.302Z,19.92
2022-07-28T23:07:13.488Z,19.88
2022-07-28T23:09:43.308Z,19.84
2022-07-28T23:12:11.188Z,19.80
2022-07-28T23:14:39.780Z,19.75
2022-07-28T23:17:07.713Z,19.70
2022-07-28T23:19:35.587Z,19.65
2022-07-28T23:22:03.874Z,19.62
2022-07-28T23:24:31.699Z,19.58
2022-07-28T23:27:00.390Z,19.53
2022-07-28T23:29:28.466Z,19.48
2022-07-28T23:31:56.642Z,19.45
2022-07-28T23:34:24.650Z,19.41
2022-07-28T23:36:52.643Z,19.37
2022-07-28T23:39:20.731Z,19.32
2022-07-28T23:41:48.815Z,19.28
2022-07-28T23:44:17.031Z,19.24
2022-07-28T23:46:45.986Z,19.19
2022-07-28T23:49:14.942Z,19.13
2022-07-28T23:51:47.641Z,19.07
2022-07-28T23:54:17.145Z,19.03
2022-07-28T23:56:45.463Z,18.99
2022-07-28T23:59:14.650Z,18.93
